Nationale Sud-Ouest Masseret (19) - F

Date : 17/03/2013
Distance : 4,600 km

Place Nom Licence Catégorie Club Temps min/km CN à J-60 Points Différence Nouveau CN
1 GIRARD Lucille 19689 D18 3705CE 0:40:59 8'54 5022 5805 +783 5356
2 NEGRE Arnaud 26632 H21 3105MP 0:43:43 9'30 3194 5442 +2248 4169
3 PERRIN Odile 2731 D40 4201RA 0:44:04 9'34 5667 5399 -268 5667
4 BASSET Fiona 23384 D18 6911RA 0:47:20 10'17 4531 5026 +495 4671
5 BORNARD Julie 9402 D18 7305RA 0:49:15 10'42 4688 4831 +143 4771
6 POEDRAS Gwendal 10671 H21 5604BR 0:50:21 10'56 5180 4725 -455 5180
7 BRAULT LIGNEREUX Marie Christine 24679 D45 1601PC 0:52:28 11'24 4469 4534 +65 4611
8 SIMON David 22522 H35 3105MP 0:53:23 11'36 0 4457 4203
9 RIVOLLIER Isaline 22451 D18 4201RA 0:54:47 11'54 4148 4343 +195 4234
10 BODY Mathilde 10184 D18 7305RA 0:55:03 11'58 5190 4322 -868 5173
11 DESQUEYROUX Jean-Philippe 6861 H21 3318AQ 0:55:55 12'09 4397 4255 -142 4405
12 FALGA Beatrice 12403 D18 6911RA 0:57:33 12'30 3678 4134 +456 3874
13 FALGA Christina 1241 D45 6911RA 0:58:54 12'48 3769 4039 +270 4106
14 ANDRE Isabelle 25211 D40 4010AQ 0:59:28 12'55 3698 4001 +303 3857
15 LEMERCIER Victoire 11454 D18 5407LO 1:00:01 13'02 3795 3964 +169 3860
16 HUGUET Carine 22312 D40 4705AQ 1:00:39 13'11 3997 3923 -74 4138
17 PETER-JAN Lucile 19276 D18 3705CE 1:00:40 13'11 4590 3922 -668 4601
18 FIGUIERE Valérie 274 D45 7109BO 1:01:33 13'22 4203 3865 -338 4223
19 LEROY Damien 27815 H21 4203RA 1:03:24 13'46 3752 3003
20 VOISIN Stephanie 1202 D40 4902PL 1:03:33 13'48 3744 3375
21 TREMOULET Carole 13824 D40 4601MP 1:03:39 13'50 3989 3738 -251 3973
22 MARTIN Sylvie 22292 D45 3308AQ 1:04:36 14'02 3937 3683 -254 4010
23 FOL-RIBET Hélène 14939 D45 3105MP 1:04:55 14'06 4109 3665 -444 4075
24 CAGNARD Nathalie 13850 D40 8311AZ 1:05:34 14'15 3674 3628 -46 3615
25 BESTEL Sandra 10758 D18 9105IF 1:07:03 14'34 3916 3548 -368 3916
26 ROULLEAUX Julie 11559 D18 9105IF 1:08:06 14'48 4897 3494 -1403 4868
27 SARION Emilie 16048 D18 4705AQ 1:09:17 15'03 3424 3434 +10 3470
28 MARTY Christel 21142 D40 4708AQ 1:10:35 15'20 3144 3371 +227 3511
29 MORVAN Clotilde 15891 D45 2906BR 1:11:38 15'34 3884 3321 -563 3803
30 RAUTURIER Nathalie 3200 D45 7807IF 1:12:55 15'51 3803 3263 -540 3778
31 ERBLAND Christine 23153 D40 9105IF 1:14:28 16'11 4399 3195 -1204 4323
32 BESTEL Florence 17309 D40 9105IF 1:14:45 16'15 4038 3183 -855 4030
33 DOUSSET Corinne 20729 D45 4709AQ 1:17:47 16'54 3827 3059 -768 3850
34 POUCHAT Valerie 12687 D45 3308AQ 1:18:18 17'01 3254 3038 -216 3387
35 DELENNE A-Francoise 11495 D45 1307PR 1:19:48 17'20 3864 2981 -883 3848
36 PECOURT Muriel 10156 D40 2904BR 1:19:54 17'22 2896 2978 +82 2955
37 LEVREUX Nathalie 14946 D45 7807IF 1:21:21 17'41 3780 2924 -856 3759
38 GIRARD Laurence 11705 D45 3308AQ 1:23:55 18'14 2789 2835 +46 3015
39 MASSIAS Sophie 26035 D21 1905LI 1:28:31 19'14 3137 2688 -449 2944
40 BROUTE Sylvine 24360 D45 3319AQ 1:30:34 19'41 2243 2627 +384 2471
41 CLAUZEAU Cléa 21958 D18 1705PC 1:30:44 19'43 3419 2622 -797 3353
42 SERRAND Hélène 14863 D45 3105MP 1:38:55 21'30 4606 2405 -2201 4575
43 TAUZIN Laurence 18370 D40 8607PC 1:42:21 22'15 2497 2324 -173 2467
44 PERROGON Dominique 21490 D45 1705PC 1:44:45 22'46 2631 2271 -360 2690
45 BIDET Mickael 27053 H21 6911RA 1:55:32 25'06 2059 1977
46 MONESTES Nathalie 24036 D45 4709AQ 2:04:40 27'06 2567 1908 -659 2762
GUINOT Joelle 18977 D45 1905LI pm None 3242 0 3171